Zamboanga, Philippines
Current Conditions -  °F | °C
As of 8:00 PM on Friday 19 Dec 2014 (Local Time) from RPMZ Reporting Station
Broken Clouds Broken Clouds  
Wind Chill: 82°   Ceiling: 10000
Heat Index: 91°   Visibility: 6mi
Dew Point: 77°   Wind: 0mph
Humidity: 84%   Direction: NA
Pressure: 29.88"   Gusts: NA
Location:  6.92°N, 122.08°E
Report Text: RPMZ 191200Z 00000KT 9999 FEW018 BKN100 28/25 Q1012 RMK A2988
Loading
Personal Weather Stations






























Interactive Weather Map New forecast layout! Learn more

10-Day Weather Forecast

Advertisements
Track Severe Weather on mobile